createdAt,value
2016-09-30T12:19:39.062Z,7220
2016-09-30T12:20:39.769Z,6460
2016-09-30T12:21:40.522Z,6748
2016-09-30T12:22:41.408Z,7544
2016-09-30T12:23:42.131Z,7592
2016-09-30T12:24:42.849Z,8148
2016-09-30T12:25:43.574Z,8144
2016-09-30T12:26:44.258Z,7192
2016-09-30T12:27:44.986Z,5588
2016-09-30T12:28:45.726Z,5068
2016-09-30T12:29:46.447Z,4060
2016-09-30T12:30:47.125Z,3124
2016-09-30T12:31:47.802Z,2560
2016-09-30T12:32:48.588Z,2572
2016-09-30T12:33:49.251Z,3000
2016-09-30T12:34:49.916Z,4500
2016-09-30T12:35:50.610Z,7248
2016-09-30T12:36:51.301Z,7900
2016-09-30T12:37:52.011Z,7168
2016-09-30T12:38:52.734Z,6356
2016-09-30T12:39:53.419Z,6004
2016-09-30T12:40:54.116Z,6120
2016-09-30T12:41:54.817Z,5792
2016-09-30T12:42:55.509Z,5780
2016-09-30T12:43:56.234Z,5592
2016-09-30T12:44:56.955Z,5652
2016-09-30T12:45:57.655Z,5704
2016-09-30T12:46:58.392Z,5456
2016-09-30T12:47:59.081Z,4304
2016-09-30T12:48:59.765Z,3692
2016-09-30T12:50:00.476Z,3400
2016-09-30T12:51:01.187Z,3572
2016-09-30T12:52:01.867Z,3556
2016-09-30T12:53:02.592Z,3800
2016-09-30T12:54:03.304Z,3476
2016-09-30T12:55:03.982Z,4104
2016-09-30T12:56:04.669Z,4808
2016-09-30T12:57:05.374Z,5840
2016-09-30T12:58:06.068Z,7540
2016-09-30T12:59:06.751Z,9272
2016-09-30T13:00:07.428Z,8896
2016-09-30T13:01:08.121Z,7568
2016-09-30T13:02:08.824Z,7276
2016-09-30T13:03:09.510Z,7536
2016-09-30T13:04:10.184Z,8068
2016-09-30T13:05:10.893Z,8604
2016-09-30T13:06:11.597Z,8420
2016-09-30T13:07:12.298Z,6100
2016-09-30T13:08:12.975Z,5112
2016-09-30T13:09:13.654Z,5356
2016-09-30T13:10:14.355Z,5692
2016-09-30T13:11:15.099Z,5696
2016-09-30T13:12:15.779Z,6144
2016-09-30T13:13:16.471Z,6104
2016-09-30T13:14:17.159Z,5508
2016-09-30T13:15:17.834Z,5092
2016-09-30T13:16:18.506Z,4520
2016-09-30T13:17:19.188Z,4656
2016-09-30T13:18:19.897Z,4948
2016-09-30T13:19:20.579Z,4980
2016-09-30T13:20:21.267Z,4788
2016-09-30T13:21:21.972Z,4540
2016-09-30T13:22:22.672Z,4016
2016-09-30T13:23:23.336Z,3532
2016-09-30T13:24:24.035Z,3136
2016-09-30T13:25:24.736Z,2948
2016-09-30T13:26:25.436Z,2788
2016-09-30T13:27:26.111Z,2648
2016-09-30T13:28:26.796Z,2512
2016-09-30T13:29:27.472Z,2392
2016-09-30T13:30:28.182Z,2300
2016-09-30T13:31:31.024Z,2292
2016-09-30T13:32:32.040Z,2268
2016-09-30T13:33:32.035Z,2188
2016-09-30T13:34:32.726Z,2132
2016-09-30T13:35:33.440Z,2076
2016-09-30T13:36:34.170Z,1920
2016-09-30T13:37:34.898Z,2052
2016-09-30T13:38:35.596Z,2160
2016-09-30T13:39:36.291Z,2296
2016-09-30T13:40:36.965Z,2312
2016-09-30T13:41:37.640Z,2496
2016-09-30T13:42:38.354Z,2440
2016-09-30T13:43:39.042Z,2440
2016-09-30T13:44:39.749Z,2604
2016-09-30T13:45:40.579Z,2200
2016-09-30T13:46:41.252Z,2044
2016-09-30T13:47:41.941Z,1808
2016-09-30T13:48:42.645Z,1804
2016-09-30T13:49:43.325Z,1708
2016-09-30T13:50:44.005Z,1736
2016-09-30T13:51:44.717Z,1928
2016-09-30T13:52:45.404Z,1960
2016-09-30T13:53:46.106Z,2012
2016-09-30T13:54:46.804Z,2036
2016-09-30T13:55:47.494Z,3032
2016-09-30T13:56:48.177Z,2684
2016-09-30T13:57:48.861Z,3064
2016-09-30T13:58:49.539Z,2896
2016-09-30T13:59:50.241Z,3180
2016-09-30T14:00:50.959Z,3296
2016-09-30T14:01:51.662Z,3072
2016-09-30T14:02:52.376Z,2724
2016-09-30T14:03:53.055Z,2492
2016-09-30T14:04:53.758Z,2256
2016-09-30T14:05:54.457Z,2132
2016-09-30T14:06:55.130Z,2008
2016-09-30T14:07:55.829Z,2376
2016-09-30T14:08:56.557Z,2188
2016-09-30T14:09:57.294Z,2176
2016-09-30T14:10:57.978Z,2280
2016-09-30T14:11:58.673Z,2416
2016-09-30T14:12:59.371Z,2388
2016-09-30T14:14:00.057Z,2356
2016-09-30T14:15:00.734Z,2356
2016-09-30T14:16:01.422Z,2372
2016-09-30T14:17:02.112Z,2388
2016-09-30T14:18:02.818Z,2304
2016-09-30T14:19:03.504Z,2260
2016-09-30T14:20:04.202Z,2180
2016-09-30T14:21:04.885Z,2216
2016-09-30T14:22:05.575Z,2180
2016-09-30T14:23:06.254Z,2088
2016-09-30T14:24:06.934Z,2084
2016-09-30T14:25:07.622Z,2152
2016-09-30T14:26:08.308Z,2088
2016-09-30T14:27:08.991Z,2064
2016-09-30T14:28:09.681Z,2168
2016-09-30T14:29:10.356Z,2332
2016-09-30T14:30:11.179Z,2140
2016-09-30T14:31:11.851Z,2212
2016-09-30T14:32:12.548Z,2372
2016-09-30T14:33:13.232Z,2936
2016-09-30T14:34:13.948Z,2304
2016-09-30T14:35:14.664Z,2156
2016-09-30T14:36:15.373Z,2248
2016-09-30T14:37:16.076Z,2292
2016-09-30T14:38:16.786Z,2208
2016-09-30T14:39:17.569Z,2388
2016-09-30T14:40:18.280Z,2276
2016-09-30T14:41:20.167Z,2528
2016-09-30T14:42:21.150Z,2496
2016-09-30T14:43:22.621Z,2144
2016-09-30T14:44:23.329Z,2080
2016-09-30T14:45:24.009Z,2140
2016-09-30T14:46:24.686Z,2036
2016-09-30T14:47:25.528Z,1928
2016-09-30T14:48:26.714Z,2068
2016-09-30T14:49:27.401Z,2064
2016-09-30T14:50:28.085Z,2816
2016-09-30T14:51:28.758Z,2068
2016-09-30T14:52:29.449Z,1788
2016-09-30T14:53:30.135Z,1800
2016-09-30T14:54:30.826Z,1768
2016-09-30T14:55:31.554Z,1684
2016-09-30T14:56:32.358Z,1728
2016-09-30T14:57:33.057Z,1764
2016-09-30T14:58:33.730Z,1984
2016-09-30T14:59:34.423Z,2116
2016-09-30T15:00:35.095Z,2240
2016-09-30T15:01:35.818Z,1876
2016-09-30T15:02:36.514Z,1788
2016-09-30T15:03:37.196Z,1924
2016-09-30T15:04:38.120Z,2060
2016-09-30T15:05:38.593Z,2220
2016-09-30T15:06:39.310Z,2332
2016-09-30T15:07:40.016Z,2196
2016-09-30T15:08:40.693Z,2100
2016-09-30T15:09:41.369Z,2020
2016-09-30T15:10:42.085Z,1828
2016-09-30T15:11:42.778Z,1660
2016-09-30T15:12:43.450Z,1624
2016-09-30T15:13:44.138Z,1640
2016-09-30T15:14:44.899Z,1608
2016-09-30T15:15:45.589Z,1588
2016-09-30T15:16:46.279Z,1668
2016-09-30T15:17:46.968Z,1672
2016-09-30T15:18:47.671Z,1632
2016-09-30T15:19:48.350Z,1568
2016-09-30T15:20:49.039Z,1556
2016-09-30T15:21:49.752Z,1560
2016-09-30T15:22:50.430Z,1552
2016-09-30T15:23:51.135Z,1536
2016-09-30T15:24:51.848Z,1552
2016-09-30T15:25:52.547Z,1580
2016-09-30T15:26:53.213Z,1560
2016-09-30T15:27:54.015Z,1580
2016-09-30T15:28:54.699Z,1520
2016-09-30T15:29:55.379Z,1528
2016-09-30T15:30:56.074Z,1492
2016-09-30T15:31:56.758Z,1476
2016-09-30T15:32:57.475Z,1388
2016-09-30T15:33:58.172Z,1344
2016-09-30T15:34:58.846Z,1468
2016-09-30T15:35:59.557Z,1816
2016-09-30T15:37:00.255Z,1980
2016-09-30T15:38:00.948Z,2100
2016-09-30T15:39:01.637Z,1976
2016-09-30T15:40:02.320Z,1732
2016-09-30T15:41:04.456Z,1620
2016-09-30T15:42:04.564Z,1480
2016-09-30T15:43:05.259Z,1404
2016-09-30T15:44:05.962Z,1188
2016-09-30T15:45:06.640Z,932
2016-09-30T15:46:07.352Z,828
2016-09-30T15:47:08.053Z,864
2016-09-30T15:48:08.743Z,992
2016-09-30T15:49:09.435Z,1168
2016-09-30T15:50:10.127Z,1456
2016-09-30T15:51:10.814Z,1584
2016-09-30T15:52:11.540Z,1344
2016-09-30T15:53:12.246Z,1304
2016-09-30T15:54:12.933Z,1332
2016-09-30T15:55:13.618Z,1304
2016-09-30T15:56:16.246Z,1216
2016-09-30T15:57:15.492Z,1136
2016-09-30T15:58:16.167Z,1164
2016-09-30T15:59:16.915Z,1048
2016-09-30T16:00:17.598Z,1020
2016-09-30T16:01:20.903Z,988
2016-09-30T16:02:20.608Z,1064
2016-09-30T16:03:21.323Z,1336
2016-09-30T16:04:22.036Z,1652
2016-09-30T16:05:22.721Z,1536
2016-09-30T16:06:23.513Z,1404
2016-09-30T16:07:24.392Z,1136
2016-09-30T16:08:26.234Z,1092
2016-09-30T16:09:30.061Z,1080
2016-09-30T16:10:29.470Z,968
2016-09-30T16:11:32.476Z,976
2016-09-30T16:12:33.152Z,1256
2016-09-30T16:13:33.845Z,1584
2016-09-30T16:14:34.545Z,1644
2016-09-30T16:15:35.223Z,1448
2016-09-30T16:16:35.925Z,1032
2016-09-30T16:17:36.610Z,932
2016-09-30T16:18:37.297Z,1104
2016-09-30T16:19:38.005Z,1120
2016-09-30T16:20:38.692Z,1016
2016-09-30T16:21:39.391Z,928
2016-09-30T16:22:40.087Z,836
2016-09-30T16:23:40.779Z,776
2016-09-30T16:24:41.465Z,744
2016-09-30T16:25:42.176Z,724
2016-09-30T16:26:42.873Z,700
2016-09-30T16:27:43.617Z,680
2016-09-30T16:28:44.308Z,672
2016-09-30T16:29:45.045Z,656
2016-09-30T16:30:45.770Z,644
2016-09-30T16:31:46.416Z,636
2016-09-30T16:32:47.112Z,612
2016-09-30T16:33:47.792Z,600
2016-09-30T16:34:48.499Z,608
2016-09-30T16:35:49.217Z,612
2016-09-30T16:36:49.918Z,560
2016-09-30T16:37:50.714Z,536
2016-09-30T16:38:51.412Z,512
2016-09-30T16:39:52.145Z,496
2016-09-30T16:40:52.827Z,480
2016-09-30T16:41:53.520Z,452
2016-09-30T16:42:54.249Z,424
2016-09-30T16:43:54.927Z,400
2016-09-30T16:44:55.645Z,380
2016-09-30T16:45:56.320Z,360
2016-09-30T16:46:57.034Z,340
2016-09-30T16:47:57.715Z,320
2016-09-30T16:48:58.438Z,300
2016-09-30T16:49:59.157Z,280
2016-09-30T16:50:59.834Z,264
2016-09-30T16:52:00.541Z,244
2016-09-30T16:53:01.217Z,228
2016-09-30T16:54:01.903Z,212
2016-09-30T16:55:02.598Z,196
2016-09-30T16:56:03.296Z,180
2016-09-30T16:57:03.980Z,164
2016-09-30T16:58:04.655Z,144
2016-09-30T16:59:05.350Z,136
2016-09-30T17:00:06.060Z,120
2016-09-30T17:01:06.770Z,104
2016-09-30T17:02:07.462Z,92
2016-09-30T17:03:08.219Z,80
2016-09-30T17:04:08.903Z,72
2016-09-30T17:05:09.607Z,64
2016-09-30T17:06:10.307Z,56
2016-09-30T17:07:11.029Z,48
2016-09-30T17:08:11.711Z,44
2016-09-30T17:09:12.384Z,36
2016-09-30T17:10:13.061Z,32
2016-09-30T17:11:13.750Z,28
2016-09-30T17:12:14.439Z,24
2016-09-30T17:13:16.181Z,20
2016-09-30T17:14:16.978Z,16
2016-09-30T17:15:17.699Z,16
2016-09-30T17:16:18.397Z,12
2016-09-30T17:17:19.143Z,12
2016-09-30T17:18:20.069Z,8
2016-09-30T17:19:20.905Z,8
2016-09-30T17:20:22.130Z,8
2016-09-30T17:21:22.608Z,4
2016-09-30T17:22:23.303Z,4
2016-09-30T17:23:24.043Z,4
2016-09-30T17:24:24.729Z,0
2016-09-30T17:25:25.419Z,4
2016-09-30T17:26:26.092Z,4
2016-09-30T17:27:26.783Z,0
2016-09-30T17:28:27.463Z,0
2016-09-30T17:29:28.144Z,0
2016-09-30T17:30:28.852Z,0
2016-09-30T17:31:29.533Z,0
2016-09-30T17:32:30.216Z,0
2016-09-30T17:33:30.969Z,0
2016-09-30T17:34:31.664Z,0
2016-09-30T17:35:32.351Z,0
2016-09-30T17:36:33.057Z,0
2016-09-30T17:37:33.750Z,0
2016-09-30T17:38:34.447Z,0
2016-09-30T17:39:35.131Z,0
2016-09-30T17:40:35.883Z,0
2016-09-30T17:41:36.550Z,0
2016-09-30T17:42:37.251Z,0
2016-09-30T17:43:37.947Z,0
2016-09-30T17:44:38.622Z,0
2016-09-30T17:45:39.315Z,0
2016-09-30T17:46:40.005Z,0
2016-09-30T17:47:40.693Z,0
2016-09-30T17:48:41.380Z,0
2016-09-30T17:49:42.191Z,0
2016-09-30T17:50:42.886Z,0
2016-09-30T17:51:43.577Z,0
2016-09-30T17:52:44.256Z,0
2016-09-30T17:53:44.989Z,0
2016-09-30T17:54:45.669Z,0
2016-09-30T17:55:46.382Z,0
2016-09-30T17:56:47.057Z,0
2016-09-30T17:57:47.752Z,0
2016-09-30T17:58:48.452Z,0
2016-09-30T17:59:49.137Z,0
2016-09-30T18:00:49.860Z,0
2016-09-30T18:01:50.560Z,0
2016-09-30T18:02:51.267Z,0
2016-09-30T18:03:51.976Z,0
2016-09-30T18:04:52.690Z,0
2016-09-30T18:05:53.496Z,0
2016-09-30T18:06:54.204Z,0
2016-09-30T18:07:54.910Z,0
2016-09-30T18:08:55.605Z,0
2016-09-30T18:09:56.306Z,0
2016-09-30T18:10:56.983Z,0
2016-09-30T18:11:57.657Z,0
2016-09-30T18:12:58.333Z,0
2016-09-30T18:13:59.201Z,0
2016-09-30T18:14:59.892Z,0
2016-09-30T18:16:00.598Z,0
2016-09-30T18:17:01.289Z,0
2016-09-30T18:18:01.998Z,0
2016-09-30T18:19:02.847Z,0
2016-09-30T18:20:03.525Z,0
2016-09-30T18:21:04.219Z,0
2016-09-30T18:22:04.911Z,0
2016-09-30T18:23:05.587Z,0
2016-09-30T18:24:06.280Z,0
2016-09-30T18:25:06.970Z,0
2016-09-30T18:26:07.681Z,0
2016-09-30T18:27:08.363Z,0
2016-09-30T18:28:09.056Z,0
2016-09-30T18:29:09.750Z,0
2016-09-30T18:30:10.433Z,0
2016-09-30T18:31:11.123Z,0
2016-09-30T18:32:11.851Z,0
2016-09-30T18:33:12.601Z,0
2016-09-30T18:34:13.468Z,0
2016-09-30T18:35:14.193Z,0
2016-09-30T18:36:15.199Z,0
2016-09-30T18:37:16.935Z,0
2016-09-30T18:38:17.551Z,0
2016-09-30T18:39:18.227Z,0
2016-09-30T18:40:19.047Z,0
2016-09-30T18:41:20.348Z,0
2016-09-30T18:42:21.455Z,0
2016-09-30T18:43:22.718Z,0
2016-09-30T18:44:23.444Z,0
2016-09-30T18:45:24.149Z,0
2016-09-30T18:46:24.833Z,0
2016-09-30T18:47:25.549Z,0
2016-09-30T18:48:26.615Z,0
2016-09-30T18:49:27.309Z,0
2016-09-30T18:50:29.120Z,0
2016-09-30T18:51:29.755Z,0
2016-09-30T18:52:30.694Z,0
2016-09-30T18:53:31.544Z,0
2016-09-30T18:54:32.182Z,0
2016-09-30T18:55:33.391Z,0
2016-09-30T18:56:33.985Z,0
2016-09-30T18:57:35.055Z,0
2016-09-30T18:58:36.144Z,0
2016-09-30T18:59:36.928Z,0
2016-09-30T19:00:37.649Z,0
2016-09-30T19:01:38.364Z,0
2016-09-30T19:02:39.710Z,0
2016-09-30T19:03:40.795Z,0
2016-09-30T19:04:41.543Z,0
2016-09-30T19:05:42.274Z,0
2016-09-30T19:06:42.996Z,0
2016-09-30T19:07:43.691Z,0
2016-09-30T19:08:44.379Z,0
2016-09-30T19:09:45.066Z,0
2016-09-30T19:10:45.772Z,0
2016-09-30T19:11:46.508Z,0
2016-09-30T19:12:47.232Z,0
2016-09-30T19:13:47.985Z,0
2016-09-30T19:14:48.705Z,0
2016-09-30T19:15:49.396Z,0
2016-09-30T19:16:50.119Z,0
2016-09-30T19:17:50.842Z,0
2016-09-30T19:18:51.543Z,0
2016-09-30T19:19:52.253Z,0
2016-09-30T19:20:52.990Z,0
2016-09-30T19:21:53.727Z,0
2016-09-30T19:22:54.461Z,0
2016-09-30T19:23:55.217Z,0
2016-09-30T19:24:55.944Z,0
2016-09-30T19:25:56.683Z,0
2016-09-30T19:26:57.357Z,0
2016-09-30T19:27:58.053Z,0
2016-09-30T19:28:58.761Z,0
2016-09-30T19:29:59.468Z,0
2016-09-30T19:31:00.232Z,0
2016-09-30T19:32:00.947Z,0
2016-09-30T19:33:01.721Z,0
2016-09-30T19:34:02.492Z,0
2016-09-30T19:35:03.186Z,0
2016-09-30T19:36:03.886Z,0
2016-09-30T19:37:04.602Z,0
2016-09-30T19:38:05.298Z,0
2016-09-30T19:39:05.990Z,0
2016-09-30T19:40:06.714Z,0
2016-09-30T19:41:07.417Z,0
2016-09-30T19:42:08.147Z,0
2016-09-30T19:43:08.863Z,0
2016-09-30T19:44:09.558Z,0
2016-09-30T19:45:10.280Z,0
2016-09-30T19:46:11.267Z,0
2016-09-30T19:47:12.334Z,0
2016-09-30T19:48:13.053Z,0
2016-09-30T19:49:13.741Z,0
2016-09-30T19:50:14.548Z,0
2016-09-30T19:51:15.271Z,0
2016-09-30T19:52:15.993Z,0
2016-09-30T19:53:16.707Z,0
2016-09-30T19:54:17.416Z,0
2016-09-30T19:55:18.221Z,0
2016-09-30T19:56:18.991Z,0
2016-09-30T19:57:19.723Z,0
2016-09-30T19:58:20.482Z,0
2016-09-30T19:59:21.216Z,0
2016-09-30T20:00:21.951Z,0
2016-09-30T20:01:22.728Z,0
2016-09-30T20:02:23.513Z,0
2016-09-30T20:03:24.439Z,0
2016-09-30T20:04:25.286Z,0
2016-09-30T20:05:26.097Z,0
2016-09-30T20:06:26.960Z,0
2016-09-30T20:07:27.835Z,0
2016-09-30T20:08:28.645Z,0
2016-09-30T20:09:29.505Z,0
2016-09-30T20:10:30.294Z,0
2016-09-30T20:11:31.283Z,0
2016-09-30T20:12:32.195Z,0
2016-09-30T20:13:32.941Z,0
2016-09-30T20:14:33.934Z,0
2016-09-30T20:15:34.901Z,0
2016-09-30T20:16:35.630Z,0
2016-09-30T20:17:36.429Z,0
2016-09-30T20:18:37.203Z,0
2016-09-30T20:19:37.965Z,0
2016-09-30T20:20:38.866Z,0
2016-09-30T20:21:39.577Z,0
2016-09-30T20:22:40.280Z,0
2016-09-30T20:23:40.962Z,0
2016-09-30T20:24:41.676Z,0
2016-09-30T20:25:42.393Z,0
2016-09-30T20:26:43.089Z,0
2016-09-30T20:27:43.781Z,0
2016-09-30T20:28:44.529Z,0
2016-09-30T20:29:45.211Z,0
2016-09-30T20:30:45.914Z,0
2016-09-30T20:31:46.667Z,0
2016-09-30T20:32:47.414Z,0
2016-09-30T20:33:48.115Z,0
2016-09-30T20:34:48.819Z,0
2016-09-30T20:35:49.528Z,0
2016-09-30T20:36:50.224Z,0
2016-09-30T20:37:50.909Z,0
2016-09-30T20:38:51.651Z,0
2016-09-30T20:39:52.366Z,0
2016-09-30T20:40:53.072Z,0
2016-09-30T20:41:53.802Z,0
2016-09-30T20:42:54.527Z,0
2016-09-30T20:43:55.262Z,0
2016-09-30T20:44:55.982Z,0
2016-09-30T20:45:56.727Z,0
2016-09-30T20:46:57.458Z,0
2016-09-30T20:47:58.167Z,0
2016-09-30T20:48:58.909Z,0
2016-09-30T20:49:59.600Z,0
2016-09-30T20:51:00.335Z,0
2016-09-30T20:52:01.014Z,0
2016-09-30T20:53:01.699Z,0
2016-09-30T20:54:02.414Z,0
2016-09-30T20:55:03.111Z,0
2016-09-30T20:56:03.835Z,0
2016-09-30T20:57:04.545Z,0
2016-09-30T20:58:05.288Z,0
2016-09-30T20:59:05.979Z,0
2016-09-30T21:00:06.666Z,0
2016-09-30T21:01:07.369Z,0
2016-09-30T21:02:08.065Z,0
2016-09-30T21:03:08.779Z,0
2016-09-30T21:04:09.489Z,0
2016-09-30T21:05:10.200Z,0
2016-09-30T21:06:10.875Z,0
2016-09-30T21:07:11.578Z,0
2016-09-30T21:08:12.285Z,0
2016-09-30T21:09:12.961Z,0
2016-09-30T21:10:13.722Z,0
2016-09-30T21:11:14.436Z,0
2016-09-30T21:12:15.239Z,0
2016-09-30T21:13:15.889Z,0
2016-09-30T21:14:16.577Z,0
2016-09-30T21:15:17.301Z,0
2016-09-30T21:16:18.304Z,0
2016-09-30T21:17:19.141Z,0
2016-09-30T21:18:19.860Z,0
2016-09-30T21:19:20.570Z,0
2016-09-30T21:20:21.307Z,0
2016-09-30T21:21:22.005Z,0
2016-09-30T21:22:22.703Z,0
2016-09-30T21:23:23.414Z,0
2016-09-30T21:24:24.139Z,0
2016-09-30T21:25:24.834Z,0
2016-09-30T21:26:25.533Z,0
2016-09-30T21:27:26.272Z,0
2016-09-30T21:28:27.004Z,0
2016-09-30T21:29:27.745Z,0
2016-09-30T21:30:28.543Z,0
2016-09-30T21:31:29.283Z,0
2016-09-30T21:32:30.035Z,0
2016-09-30T21:33:30.870Z,0
2016-09-30T21:34:31.612Z,0
2016-09-30T21:35:32.330Z,0
2016-09-30T21:36:33.059Z,0
2016-09-30T21:37:33.773Z,0
2016-09-30T21:38:34.496Z,0
2016-09-30T21:39:35.249Z,0
2016-09-30T21:40:35.903Z,0
2016-09-30T21:41:36.591Z,0
2016-09-30T21:42:37.360Z,0
2016-09-30T21:43:38.058Z,0
2016-09-30T21:44:39.631Z,0
2016-09-30T21:45:40.321Z,0
2016-09-30T21:46:40.998Z,0
2016-09-30T21:47:41.714Z,0
2016-09-30T21:48:42.400Z,0
2016-09-30T21:49:43.151Z,0
2016-09-30T21:50:43.846Z,0
2016-09-30T21:51:44.551Z,0
2016-09-30T21:52:45.251Z,0
2016-09-30T21:53:46.225Z,0
2016-09-30T21:54:47.931Z,0
2016-09-30T21:55:48.490Z,0
2016-09-30T21:56:49.204Z,0
2016-09-30T21:57:49.968Z,0
2016-09-30T21:58:50.656Z,0
2016-09-30T21:59:51.373Z,0
2016-09-30T22:00:52.095Z,0
2016-09-30T22:01:52.844Z,0
2016-09-30T22:02:53.595Z,0
2016-09-30T22:03:54.306Z,0
2016-09-30T22:04:55.025Z,0
2016-09-30T22:05:55.722Z,0
2016-09-30T22:06:56.412Z,0
2016-09-30T22:07:57.260Z,0
2016-09-30T22:08:58.000Z,0
2016-09-30T22:09:58.742Z,0
2016-09-30T22:10:59.470Z,0
2016-09-30T22:12:00.178Z,0
2016-09-30T22:13:00.897Z,0
2016-09-30T22:14:01.605Z,0
2016-09-30T22:15:02.304Z,0
2016-09-30T22:16:02.985Z,0
2016-09-30T22:17:03.691Z,0
2016-09-30T22:18:04.403Z,0
2016-09-30T22:19:05.115Z,0
2016-09-30T22:20:05.838Z,0
2016-09-30T22:21:06.543Z,0
2016-09-30T22:22:07.276Z,0
2016-09-30T22:23:08.013Z,0
2016-09-30T22:24:08.735Z,0
2016-09-30T22:25:09.514Z,0
2016-09-30T22:26:10.262Z,0
2016-09-30T22:27:11.001Z,0
2016-09-30T22:28:11.695Z,0
2016-09-30T22:29:12.413Z,0
2016-09-30T22:30:13.140Z,0
2016-09-30T22:31:13.860Z,0
2016-09-30T22:32:14.543Z,0
2016-09-30T22:33:15.249Z,0
2016-09-30T22:34:15.959Z,0
2016-09-30T22:35:16.662Z,0
2016-09-30T22:36:17.390Z,0
2016-09-30T22:37:18.066Z,0
2016-09-30T22:38:18.774Z,0
2016-09-30T22:39:19.453Z,0
2016-09-30T22:40:20.133Z,0
2016-09-30T22:41:20.821Z,0
2016-09-30T22:42:21.522Z,0
2016-09-30T22:43:22.197Z,0
2016-09-30T22:44:22.878Z,0
2016-09-30T22:45:23.560Z,0
2016-09-30T22:46:24.251Z,0
2016-09-30T22:47:24.933Z,0
2016-09-30T22:48:25.611Z,0
2016-09-30T22:49:26.301Z,0
2016-09-30T22:50:26.991Z,0
2016-09-30T22:51:27.677Z,0
2016-09-30T22:52:28.388Z,0
2016-09-30T22:53:29.075Z,0
2016-09-30T22:54:29.748Z,0
2016-09-30T22:55:30.458Z,0
2016-09-30T22:56:31.141Z,0
2016-09-30T22:57:31.832Z,0
2016-09-30T22:58:32.521Z,0
2016-09-30T22:59:33.215Z,0
2016-09-30T23:00:33.888Z,0
2016-09-30T23:01:34.576Z,0
2016-09-30T23:02:35.267Z,0
2016-09-30T23:03:35.951Z,0
2016-09-30T23:04:36.674Z,0
2016-09-30T23:05:37.384Z,0
2016-09-30T23:06:38.108Z,0
2016-09-30T23:07:38.799Z,0
2016-09-30T23:08:39.477Z,0
2016-09-30T23:09:40.156Z,0
2016-09-30T23:10:40.852Z,0
2016-09-30T23:11:41.593Z,0
2016-09-30T23:12:42.299Z,0
2016-09-30T23:13:42.996Z,0
2016-09-30T23:14:43.688Z,0
2016-09-30T23:15:44.368Z,0
2016-09-30T23:16:45.059Z,0
2016-09-30T23:17:45.746Z,0
2016-09-30T23:18:46.431Z,0
2016-09-30T23:19:47.114Z,0
2016-09-30T23:20:47.818Z,0
2016-09-30T23:21:48.512Z,0
2016-09-30T23:22:49.217Z,0
2016-09-30T23:23:49.916Z,0
2016-09-30T23:24:50.671Z,0
2016-09-30T23:25:51.354Z,0
2016-09-30T23:26:52.109Z,0
2016-09-30T23:27:52.789Z,0
2016-09-30T23:28:53.477Z,0
2016-09-30T23:29:54.173Z,0
2016-09-30T23:30:54.846Z,0
2016-09-30T23:31:55.515Z,0
2016-09-30T23:32:56.185Z,0
2016-09-30T23:33:56.858Z,0
2016-09-30T23:34:57.529Z,0
2016-09-30T23:35:58.204Z,0
2016-09-30T23:36:58.875Z,0
2016-09-30T23:37:59.552Z,0
2016-09-30T23:39:00.241Z,0
2016-09-30T23:40:00.920Z,0
2016-09-30T23:41:01.607Z,0
2016-09-30T23:42:02.297Z,0
2016-09-30T23:43:03.011Z,0
2016-09-30T23:44:03.697Z,0
2016-09-30T23:45:04.405Z,0
2016-09-30T23:46:05.083Z,0
2016-09-30T23:47:05.756Z,0
2016-09-30T23:48:06.427Z,0
2016-09-30T23:49:07.121Z,0
2016-09-30T23:50:07.828Z,0
2016-09-30T23:51:08.510Z,0
2016-09-30T23:52:09.219Z,0
2016-09-30T23:53:09.894Z,0
2016-09-30T23:54:10.588Z,0
2016-09-30T23:55:11.272Z,0
2016-09-30T23:56:11.963Z,0
2016-09-30T23:57:12.653Z,0
2016-09-30T23:58:13.352Z,0
2016-09-30T23:59:14.035Z,0
